Time;durP1;ratioP1;P1;durP2;ratioP2;P2;SDS_P1;SDS_P2;PMS_P1;PMS_P2;Temp;Humidity;BMP_temperature;BMP_pressure;BME280_temperature;BME280_humidity;BME280_pressure;Samples;Min_cycle;Max_cycle;Signal;HPM_P1;HPM_P2
2022/05/12 00:01:48;;;;;;;;;4.00;3.00;;;;;18.45;61.28;101367.22;5037673;28;45486;-74
2022/05/12 00:04:13;;;;;;;;;4.25;2.75;;;;;18.42;62.08;101355.06;5036354;28;45730;-74
2022/05/12 00:06:41;;;;;;;;;6.00;3.00;;;;;18.36;62.31;101365.88;5038109;28;45438;-73
2022/05/12 00:09:07;;;;;;;;;5.25;5.00;;;;;18.34;61.75;101362.47;5043184;28;45597;-72
2022/05/12 00:11:32;;;;;;;;;11.25;4.50;;;;;18.26;62.40;101358.53;5039829;28;45586;-72
2022/05/12 00:13:58;;;;;;;;;5.50;5.00;;;;;18.22;63.03;101350.81;5039035;28;45379;-73
2022/05/12 00:16:23;;;;;;;;;5.75;3.00;;;;;18.18;62.34;101356.25;5039854;28;45469;-74
2022/05/12 00:18:48;;;;;;;;;9.00;4.00;;;;;18.14;64.03;101366.09;5039235;28;46272;-74
2022/05/12 00:21:14;;;;;;;;;5.50;3.25;;;;;18.12;62.89;101370.59;5039283;28;45368;-73
2022/05/12 00:23:39;;;;;;;;;9.25;3.00;;;;;18.08;63.38;101369.03;5039815;28;45480;-73
2022/05/12 00:26:04;;;;;;;;;5.00;5.00;;;;;18.06;63.87;101376.16;5039123;28;45201;-71
2022/05/12 00:28:30;;;;;;;;;5.25;4.75;;;;;18.06;63.69;101373.53;5038292;28;46001;-69
2022/05/12 00:30:57;;;;;;;;;9.00;4.00;;;;;18.05;64.83;101379.72;5039641;28;45372;-70
2022/05/12 00:33:26;;;;;;;;;8.25;5.00;;;;;18.01;63.38;101380.75;5038913;28;45355;-70
2022/05/12 00:35:53;;;;;;;;;6.00;4.75;;;;;18.02;63.60;101384.25;5039223;28;45408;-72
2022/05/12 00:38:18;;;;;;;;;4.00;4.00;;;;;18.00;63.13;101391.34;5039331;28;46452;-71
2022/05/12 00:40:46;;;;;;;;;6.50;3.00;;;;;18.06;62.96;101391.09;5038149;28;45282;-70
2022/05/12 00:43:37;;;;;;;;;5.50;4.50;;;;;18.11;63.24;101394.34;5039565;28;45446;-71
2022/05/12 00:46:09;;;;;;;;;6.75;5.00;;;;;18.02;62.92;101398.28;5036593;28;45360;-71
2022/05/12 00:48:34;;;;;;;;;4.25;2.50;;;;;18.06;63.45;101406.88;5039268;28;45510;-71
2022/05/12 00:51:01;;;;;;;;;8.75;6.25;;;;;18.01;63.88;101412.31;5039235;28;45316;-70
2022/05/12 00:53:29;;;;;;;;;6.50;5.75;;;;;17.89;64.12;101407.66;5039388;28;45340;-72
2022/05/12 00:55:55;;;;;;;;;7.25;5.50;;;;;17.89;63.67;101405.88;5038618;28;45403;-71
2022/05/12 00:58:21;;;;;;;;;9.00;6.25;;;;;17.91;63.26;101414.53;5039021;28;45284;-72
2022/05/12 01:00:47;;;;;;;;;5.50;5.00;;;;;17.92;62.67;101413.63;5039230;28;45692;-72
2022/05/12 01:03:19;;;;;;;;;6.50;6.00;;;;;17.92;63.03;101416.25;5037492;28;45851;-72
2022/05/12 01:05:47;;;;;;;;;8.50;6.00;;;;;17.88;62.50;101409.44;5035558;28;45605;-72
2022/05/12 01:08:15;;;;;;;;;7.50;7.00;;;;;17.84;62.97;101418.41;5035245;28;46717;-72
2022/05/12 01:10:42;;;;;;;;;8.00;6.00;;;;;17.76;63.51;101420.50;5043917;28;45499;-71
2022/05/12 01:13:08;;;;;;;;;6.00;6.00;;;;;17.73;63.50;101427.69;5037407;28;45707;-71
2022/05/12 01:15:33;;;;;;;;;8.25;7.00;;;;;17.61;64.21;101432.53;5039890;28;45632;-70
2022/05/12 01:18:17;;;;;;;;;6.00;4.25;;;;;17.48;64.21;101435.81;5039895;28;46429;-70
2022/05/12 01:20:43;;;;;;;;;8.00;6.25;;;;;17.30;65.14;101425.22;5036610;28;46543;-70
2022/05/12 01:23:21;;;;;;;;;8.00;7.00;;;;;17.23;64.82;101436.94;5040114;28;45236;-70
2022/05/12 01:25:46;;;;;;;;;9.50;7.00;;;;;17.16;64.46;101435.47;5041043;28;46414;-70
2022/05/12 01:28:12;;;;;;;;;6.00;6.00;;;;;17.18;65.11;101435.41;5037210;28;45333;-70
2022/05/12 01:30:37;;;;;;;;;8.25;7.00;;;;;17.14;65.29;101439.94;5038437;28;45311;-71
2022/05/12 01:33:04;;;;;;;;;11.75;7.00;;;;;17.13;64.68;101446.09;5038468;28;45312;-71
2022/05/12 01:35:32;;;;;;;;;9.50;9.50;;;;;17.14;65.44;101449.59;5037890;28;45398;-72
2022/05/12 01:37:58;;;;;;;;;6.25;6.00;;;;;17.07;65.34;101435.03;5038145;28;45357;-71
2022/05/12 01:40:25;;;;;;;;;8.25;6.75;;;;;17.09;65.23;101446.31;5035685;28;45591;-71
2022/05/12 01:42:52;;;;;;;;;10.25;9.00;;;;;17.11;64.12;101447.09;5038405;28;45260;-72
2022/05/12 01:45:18;;;;;;;;;8.00;6.00;;;;;17.12;64.88;101448.81;5038334;28;45405;-71
2022/05/12 01:47:43;;;;;;;;;8.25;7.00;;;;;17.16;64.87;101453.84;5035738;28;46754;-72
2022/05/12 01:50:10;;;;;;;;;4.25;4.25;;;;;17.16;65.65;101445.97;5040646;28;45534;-72
2022/05/12 01:52:36;;;;;;;;;5.25;3.25;;;;;17.04;65.65;101449.16;5041611;28;45481;-71
2022/05/12 01:55:01;;;;;;;;;5.50;3.25;;;;;17.02;64.76;101453.63;5041845;28;45358;-71
2022/05/12 01:57:29;;;;;;;;;6.50;6.00;;;;;17.06;65.44;101460.44;5042176;28;45880;-71
2022/05/12 01:59:55;;;;;;;;;7.00;7.00;;;;;17.02;65.02;101464.97;5040663;28;45566;-72
2022/05/12 02:02:20;;;;;;;;;6.00;2.00;;;;;16.98;65.80;101473.88;5042177;28;45274;-71
2022/05/12 02:04:48;;;;;;;;;6.25;6.25;;;;;16.97;65.31;101471.31;5041594;28;45568;-72
2022/05/12 02:07:14;;;;;;;;;5.25;5.25;;;;;16.95;65.20;101474.00;5041856;28;46204;-71
2022/05/12 02:09:40;;;;;;;;;8.00;5.00;;;;;16.93;65.67;101478.47;5046557;28;45316;-71
2022/05/12 02:12:05;;;;;;;;;7.50;5.00;;;;;16.95;65.11;101488.91;5041961;28;45442;-70
2022/05/12 02:14:31;;;;;;;;;6.75;6.50;;;;;16.96;65.20;101480.09;5038545;28;45530;-70
2022/05/12 02:16:56;;;;;;;;;6.00;4.00;;;;;16.95;64.62;101483.66;5040454;28;47945;-70
2022/05/12 02:19:22;;;;;;;;;6.75;4.00;;;;;16.90;64.02;101486.47;5040044;28;45393;-70
2022/05/12 02:21:47;;;;;;;;;5.00;3.00;;;;;16.82;62.86;101479.81;5048716;28;45260;-70
2022/05/12 02:24:13;;;;;;;;;3.50;2.00;;;;;16.78;62.70;101492.22;5047198;28;45505;-71
2022/05/12 02:26:38;;;;;;;;;3.00;3.00;;;;;16.71;62.31;101488.16;5041602;28;46182;-72
2022/05/12 02:29:04;;;;;;;;;3.75;2.75;;;;;16.74;62.33;101506.41;5039978;28;45272;-69
2022/05/12 02:31:30;;;;;;;;;5.50;3.00;;;;;16.72;61.60;101498.59;5041820;28;45354;-70
2022/05/12 02:33:55;;;;;;;;;3.00;3.00;;;;;16.72;61.26;101506.47;5041300;28;45229;-70
2022/05/12 02:36:21;;;;;;;;;2.25;2.00;;;;;16.68;61.58;101507.50;5041155;28;46432;-70
2022/05/12 02:38:47;;;;;;;;;3.00;2.00;;;;;16.66;61.41;101518.97;5041063;28;45248;-72
2022/05/12 02:41:13;;;;;;;;;4.50;4.50;;;;;16.72;61.07;101519.59;5041743;28;45418;-73
2022/05/12 02:43:38;;;;;;;;;2.00;2.00;;;;;16.76;61.13;101517.69;5041527;28;45228;-72
2022/05/12 02:46:06;;;;;;;;;3.00;2.00;;;;;16.82;60.81;101513.94;5049469;28;45522;-70
2022/05/12 02:48:38;;;;;;;;;5.00;2.00;;;;;16.80;60.49;101521.91;5043764;28;45301;-72
2022/05/12 02:51:04;;;;;;;;;4.00;3.00;;;;;16.77;60.64;101523.78;5052471;28;45397;-72
2022/05/12 02:53:30;;;;;;;;;8.00;2.25;;;;;16.66;61.37;101525.09;5040829;28;45585;-71
2022/05/12 02:55:57;;;;;;;;;3.50;2.00;;;;;16.54;61.12;101517.66;5039833;28;47067;-71
2022/05/12 02:58:22;;;;;;;;;2.00;1.25;;;;;16.53;61.71;101521.22;5040749;28;45440;-75
2022/05/12 03:00:47;;;;;;;;;2.00;2.00;;;;;16.51;62.09;101522.19;5040193;28;45257;-74
2022/05/12 03:03:13;;;;;;;;;1.50;1.50;;;;;16.44;62.09;101532.09;5040849;28;45400;-76
2022/05/12 03:05:40;;;;;;;;;4.00;2.25;;;;;16.43;61.80;101533.84;5040441;28;46099;-73
2022/05/12 03:08:07;;;;;;;;;3.00;3.00;;;;;16.40;62.42;101536.56;5038409;28;45313;-72
2022/05/12 03:10:34;;;;;;;;;3.75;3.00;;;;;16.34;62.56;101541.22;5046592;28;45239;-73
2022/05/12 03:12:59;;;;;;;;;3.50;3.00;;;;;16.26;62.75;101548.53;5042534;28;45839;-73
2022/05/12 03:15:25;;;;;;;;;4.00;2.75;;;;;16.20;62.49;101536.47;5038447;28;46288;-73
2022/05/12 03:17:51;;;;;;;;;2.00;2.00;;;;;16.15;63.54;101538.44;5039351;28;45372;-73
2022/05/12 03:20:19;;;;;;;;;4.00;2.00;;;;;16.12;63.52;101546.41;5048878;28;45442;-73
2022/05/12 03:22:45;;;;;;;;;4.50;2.00;;;;;16.13;63.47;101548.13;5036649;28;45479;-74
2022/05/12 03:25:13;;;;;;;;;4.00;3.25;;;;;16.09;63.76;101544.78;5036565;28;47096;-74
2022/05/12 03:27:40;;;;;;;;;7.25;3.50;;;;;16.06;64.28;101541.41;5039580;28;45609;-75
2022/05/12 03:30:08;;;;;;;;;5.00;3.00;;;;;16.07;64.12;101537.88;5040755;28;45423;-73
2022/05/12 03:32:34;;;;;;;;;4.50;3.00;;;;;16.09;63.67;101529.03;5040559;28;45308;-73
2022/05/12 03:34:59;;;;;;;;;4.25;2.25;;;;;16.15;63.98;101543.69;5040316;28;45337;-74
2022/05/12 03:37:24;;;;;;;;;6.25;3.00;;;;;16.15;63.94;101543.69;5040181;28;45221;-74
2022/05/12 03:39:50;;;;;;;;;4.00;2.00;;;;;16.11;63.60;101542.09;5040790;28;45221;-71
2022/05/12 03:42:16;;;;;;;;;5.00;3.00;;;;;16.11;63.51;101537.69;5040127;28;45383;-70
2022/05/12 03:44:53;;;;;;;;;5.00;3.00;;;;;16.08;63.77;101537.81;5038859;28;47263;-71
2022/05/12 03:47:22;;;;;;;;;3.00;3.00;;;;;16.01;64.60;101538.94;5040738;28;45692;-75
2022/05/12 03:49:48;;;;;;;;;4.25;2.00;;;;;16.01;63.92;101536.31;5040271;28;45349;-73
2022/05/12 03:52:14;;;;;;;;;2.00;2.00;;;;;15.98;64.00;101535.59;5038649;28;45311;-73
2022/05/12 03:54:40;;;;;;;;;4.50;3.00;;;;;15.96;64.61;101533.03;5040311;28;46447;-73
2022/05/12 03:57:06;;;;;;;;;4.75;2.75;;;;;15.92;64.97;101544.53;5039992;28;45302;-73
2022/05/12 03:59:32;;;;;;;;;3.75;2.00;;;;;15.83;64.50;101544.88;5040918;28;45525;-78
2022/05/12 04:01:58;;;;;;;;;3.75;3.00;;;;;15.77;64.66;101542.47;5039962;28;45169;-78
2022/05/12 04:04:23;;;;;;;;;6.25;4.00;;;;;15.75;65.72;101553.00;5042925;28;48131;-76
2022/05/12 04:06:48;;;;;;;;;2.00;2.00;;;;;15.72;64.99;101554.88;5047190;28;45376;-79
2022/05/12 04:09:14;;;;;;;;;2.75;2.00;;;;;15.65;65.32;101554.25;5050287;28;45851;-82
2022/05/12 04:11:39;;;;;;;;;4.50;2.00;;;;;15.67;64.87;101565.53;5048929;28;45593;-79
2022/05/12 04:14:04;;;;;;;;;2.75;2.00;;;;;15.64;65.46;101557.78;5049382;28;46304;-76
2022/05/12 04:16:32;;;;;;;;;4.00;2.00;;;;;15.65;65.47;101566.50;5047120;28;45394;-72
2022/05/12 04:18:58;;;;;;;;;4.00;2.25;;;;;15.62;65.93;101567.47;5048143;28;45472;-67
2022/05/12 04:21:24;;;;;;;;;4.75;3.00;;;;;15.58;65.42;101576.28;5046558;28;45330;-73
2022/05/12 04:23:50;;;;;;;;;3.00;3.00;;;;;15.59;65.58;101566.69;5050555;28;45448;-73
2022/05/12 04:26:15;;;;;;;;;6.00;3.00;;;;;15.61;65.69;101570.13;5040230;28;45635;-73
2022/05/12 04:28:41;;;;;;;;;7.00;4.00;;;;;15.57;65.57;101569.34;5038405;28;45325;-77
2022/05/12 04:31:06;;;;;;;;;4.00;3.00;;;;;15.64;65.56;101581.38;5039618;28;45178;-76
2022/05/12 04:36:15;;;;;;;;;6.25;5.50;;;;;15.52;66.24;101568.66;5038731;28;45711;-70
2022/05/12 04:38:41;;;;;;;;;5.75;4.75;;;;;15.52;66.88;101587.00;5039289;28;45233;-69
2022/05/12 04:41:08;;;;;;;;;4.50;3.00;;;;;15.39;67.41;101577.84;5039353;28;45221;-71
2022/05/12 04:43:33;;;;;;;;;5.25;3.00;;;;;15.34;66.84;101587.63;5037592;28;48115;-74
2022/05/12 04:45:58;;;;;;;;;3.25;3.25;;;;;15.39;66.63;101583.06;5039152;28;45296;-77
2022/05/12 04:48:25;;;;;;;;;7.00;4.00;;;;;15.44;66.64;101591.66;5058903;28;45495;-83
2022/05/12 04:50:50;;;;;;;;;8.00;3.25;;;;;15.46;66.46;101595.94;5039868;28;45609;-73
2022/05/12 04:53:16;;;;;;;;;7.75;4.25;;;;;15.53;67.24;101602.66;5037999;28;48220;-74
2022/05/12 04:55:41;;;;;;;;;2.50;2.00;;;;;15.55;66.36;101602.59;5039336;28;45330;-74
2022/05/12 04:58:07;;;;;;;;;7.25;5.75;;;;;15.51;66.63;101594.00;5039306;28;45412;-75
2022/05/12 05:00:36;;;;;;;;;2.25;2.25;;;;;15.52;66.72;101595.72;5039166;28;45367;-74
2022/05/12 05:03:03;;;;;;;;;3.50;3.00;;;;;15.55;66.09;101596.50;5038731;28;45284;-73
2022/05/12 05:05:29;;;;;;;;;5.25;3.00;;;;;15.55;66.15;101607.84;5038415;28;45422;-73
2022/05/12 05:07:54;;;;;;;;;4.25;4.25;;;;;15.48;66.98;101596.72;5051068;28;45328;-73
2022/05/12 05:10:20;;;;;;;;;5.75;3.25;;;;;15.43;67.72;101597.81;5043845;28;45369;-75
2022/05/12 05:12:45;;;;;;;;;5.25;3.00;;;;;15.40;66.66;101603.13;5042874;28;45613;-70
2022/05/12 05:15:12;;;;;;;;;6.00;4.25;;;;;15.42;67.06;101596.09;5044232;28;45308;-71
2022/05/12 05:17:38;;;;;;;;;4.50;4.25;;;;;15.47;66.66;101597.66;5058484;28;45322;-73
2022/05/12 05:20:05;;;;;;;;;7.75;2.25;;;;;15.53;67.14;101613.16;5037560;28;46003;-73
2022/05/12 05:22:32;;;;;;;;;4.75;3.00;;;;;15.49;66.82;101608.91;5037975;28;46734;-69
2022/05/12 05:24:59;;;;;;;;;4.00;4.00;;;;;15.57;66.93;101624.38;5041192;28;45236;-65
2022/05/12 05:27:24;;;;;;;;;5.00;3.25;;;;;15.56;66.64;101624.41;5042316;28;45469;-70
2022/05/12 05:29:51;;;;;;;;;9.25;6.00;;;;;15.57;67.41;101628.75;5042226;28;45556;-70
2022/05/12 05:32:16;;;;;;;;;7.00;5.50;;;;;15.55;66.70;101627.94;5040512;28;48176;-76
2022/05/12 05:34:42;;;;;;;;;8.50;4.00;;;;;15.56;66.41;101622.66;5041744;28;45467;-69
2022/05/12 05:37:07;;;;;;;;;5.50;4.00;;;;;15.60;66.51;101628.69;5040172;28;45388;-70
2022/05/12 05:39:33;;;;;;;;;12.75;6.00;;;;;15.53;66.62;101625.38;5041738;28;45447;-71
2022/05/12 05:42:09;;;;;;;;;5.50;4.00;;;;;15.59;66.51;101640.06;5041093;28;46604;-68
2022/05/12 05:44:34;;;;;;;;;7.50;6.75;;;;;15.65;66.34;101639.88;5041374;28;45228;-68
2022/05/12 05:47:00;;;;;;;;;11.75;8.25;;;;;15.74;66.32;101635.16;5041465;28;45590;-66
2022/05/12 05:49:27;;;;;;;;;7.25;5.25;;;;;15.78;66.08;101646.41;5041636;28;45302;-68
2022/05/12 05:54:37;;;;;;;;;6.00;4.00;;;;;15.77;66.52;101653.41;5041474;28;45230;-71
2022/05/12 05:57:03;;;;;;;;;7.25;4.00;;;;;15.72;66.53;101655.34;5039579;28;45482;-71
2022/05/12 05:59:28;;;;;;;;;8.75;4.00;;;;;15.68;66.08;101664.22;5034015;28;45467;-72
2022/05/12 06:01:54;;;;;;;;;5.50;5.50;;;;;15.72;65.99;101670.19;5040481;28;45430;-72
2022/05/12 06:04:20;;;;;;;;;6.00;4.00;;;;;15.78;65.90;101686.56;5039189;28;45477;-71
2022/05/12 06:06:46;;;;;;;;;7.75;6.25;;;;;15.86;65.56;101686.31;5041465;28;45331;-72
2022/05/12 06:09:12;;;;;;;;;8.75;5.50;;;;;15.90;65.78;101687.91;5046755;28;45347;-70
2022/05/12 06:11:39;;;;;;;;;5.75;5.75;;;;;15.97;65.58;101680.69;5040905;28;45266;-70
2022/05/12 06:14:05;;;;;;;;;6.00;5.00;;;;;16.09;64.97;101694.25;5044240;28;45352;-71
2022/05/12 06:16:31;;;;;;;;;8.25;6.00;;;;;16.20;64.61;101687.75;5039730;28;45226;-70
2022/05/12 06:18:56;;;;;;;;;9.25;6.00;;;;;16.29;64.61;101696.16;5039760;28;45549;-70
2022/05/12 06:21:22;;;;;;;;;12.00;5.50;;;;;16.41;64.06;101698.31;5040824;28;46383;-69
2022/05/12 06:23:47;;;;;;;;;5.00;5.00;;;;;16.52;63.71;101713.69;5041258;28;45374;-70
2022/05/12 06:26:15;;;;;;;;;6.75;6.00;;;;;16.61;63.47;101709.84;5041171;28;45218;-70
2022/05/12 06:28:45;;;;;;;;;5.25;4.75;;;;;16.68;62.29;101707.00;5041213;28;45331;-70
2022/05/12 06:31:12;;;;;;;;;4.00;4.00;;;;;16.69;62.10;101703.44;5041334;28;46192;-70
2022/05/12 06:33:38;;;;;;;;;5.75;5.25;;;;;16.75;62.09;101704.13;5041035;28;45302;-71
2022/05/12 06:36:05;;;;;;;;;6.75;5.25;;;;;16.80;61.66;101710.06;5039904;28;45644;-70
2022/05/12 06:38:31;;;;;;;;;13.00;6.25;;;;;16.85;61.43;101700.25;5040699;28;45558;-70
2022/05/12 06:40:56;;;;;;;;;8.75;7.50;;;;;16.95;61.34;101698.97;5039458;28;47171;-70
2022/05/12 06:43:23;;;;;;;;;7.75;5.75;;;;;17.08;60.68;101712.50;5040908;28;45446;-71
2022/05/12 06:45:49;;;;;;;;;10.00;5.75;;;;;17.07;60.04;101713.41;5040963;28;45450;-70
2022/05/12 06:48:15;;;;;;;;;4.25;4.00;;;;;17.07;59.61;101719.53;5040554;28;45514;-70
2022/05/12 06:50:40;;;;;;;;;6.00;5.00;;;;;17.09;59.80;101716.84;5039420;28;45536;-71
2022/05/12 06:53:06;;;;;;;;;7.00;4.25;;;;;17.18;59.52;101708.56;5038312;28;45242;-70
2022/05/12 06:55:31;;;;;;;;;7.75;4.75;;;;;17.26;59.72;101719.66;5039864;28;45334;-70
2022/05/12 06:57:57;;;;;;;;;5.00;5.00;;;;;17.39;59.39;101718.22;5040092;28;45418;-70
2022/05/12 07:00:23;;;;;;;;;8.25;5.50;;;;;17.54;58.71;101722.00;5039613;28;46084;-70
2022/05/12 07:02:49;;;;;;;;;9.75;8.50;;;;;17.61;58.37;101710.31;5040054;28;45798;-70
2022/05/12 07:05:17;;;;;;;;;8.50;5.00;;;;;17.70;58.06;101714.41;5051447;28;45420;-70
2022/05/12 07:07:43;;;;;;;;;15.50;10.75;;;;;17.76;57.67;101725.50;5037880;28;45405;-70
2022/05/12 07:10:11;;;;;;;;;7.00;6.25;;;;;17.75;57.55;101726.41;5047042;28;46909;-69
2022/05/12 07:12:36;;;;;;;;;6.50;5.75;;;;;17.66;57.43;101716.28;5044013;28;45467;-70
2022/05/12 07:15:02;;;;;;;;;9.75;6.25;;;;;17.70;57.57;101720.50;5039923;28;45193;-70
2022/05/12 07:17:28;;;;;;;;;5.75;5.00;;;;;17.70;56.91;101717.03;5050894;28;45217;-70
2022/05/12 07:28:09;;;;;;;;;4.50;4.00;;;;;18.13;55.63;101721.31;5039913;28;45441;-70
2022/05/12 07:31:00;;;;;;;;;5.50;4.50;;;;;18.29;55.38;101719.72;5040025;28;46434;-70
2022/05/12 07:33:20;;;;;;;;;7.50;5.50;;;;;18.39;54.13;101722.78;5040140;28;45353;-70
2022/05/12 07:35:46;;;;;;;;;4.25;2.75;;;;;18.42;53.82;101717.41;5040086;28;45594;-70
2022/05/12 07:38:11;;;;;;;;;6.00;4.50;;;;;18.46;54.16;101725.09;5040010;28;45545;-70
2022/05/12 07:40:36;;;;;;;;;5.50;4.00;;;;;18.55;54.10;101719.41;5039801;28;46358;-70
2022/05/12 07:43:02;;;;;;;;;7.00;3.75;;;;;18.63;53.66;101716.50;5038532;28;45362;-70
2022/05/12 07:45:28;;;;;;;;;7.75;4.00;;;;;18.81;53.31;101733.19;5042047;28;45312;-69
2022/05/12 07:47:53;;;;;;;;;9.25;4.75;;;;;18.94;51.09;101726.44;5037868;28;45436;-70
2022/05/12 07:50:19;;;;;;;;;5.50;2.75;;;;;18.86;49.63;101719.84;5039642;28;45351;-70
2022/05/12 07:52:44;;;;;;;;;7.25;4.25;;;;;18.74;50.17;101730.00;5040448;28;45233;-70
2022/05/12 07:55:09;;;;;;;;;11.00;4.00;;;;;18.76;50.68;101730.78;5038800;28;45283;-70
2022/05/12 07:57:35;;;;;;;;;6.00;4.00;;;;;18.78;49.56;101725.44;5039781;28;45263;-70
2022/05/12 08:00:00;;;;;;;;;6.50;4.50;;;;;18.71;49.87;101719.63;5038087;28;47324;-70
2022/05/12 08:02:26;;;;;;;;;5.25;4.00;;;;;18.84;50.22;101733.09;5038575;28;45250;-70
2022/05/12 08:04:52;;;;;;;;;4.00;3.25;;;;;18.92;49.49;101725.66;5039626;28;45524;-70
2022/05/12 08:07:17;;;;;;;;;7.25;5.00;;;;;19.10;49.62;101726.59;5039598;28;45234;-70
2022/05/12 08:09:43;;;;;;;;;10.50;5.25;;;;;19.21;48.76;101729.56;5045353;28;45343;-70
2022/05/12 08:12:09;;;;;;;;;4.50;3.00;;;;;19.24;48.65;101723.31;5039070;28;45215;-71
2022/05/12 08:14:34;;;;;;;;;5.50;3.75;;;;;19.31;49.71;101725.56;5043065;28;45372;-71
2022/05/12 08:17:01;;;;;;;;;7.25;3.50;;;;;19.27;49.26;101728.44;5039525;28;45343;-71
2022/05/12 08:19:26;;;;;;;;;5.75;5.00;;;;;19.19;48.60;101736.69;5039581;28;45496;-71
2022/05/12 08:21:52;;;;;;;;;7.00;5.00;;;;;19.27;48.66;101742.47;5039664;28;45391;-70
2022/05/12 08:24:18;;;;;;;;;5.00;4.00;;;;;19.31;48.56;101738.75;5039474;28;45398;-70
2022/05/12 08:26:43;;;;;;;;;6.50;4.50;;;;;19.45;48.04;101732.81;5039404;28;45245;-71
2022/05/12 08:29:09;;;;;;;;;9.00;5.00;;;;;19.53;48.54;101743.81;5039209;28;45384;-70
2022/05/12 08:31:34;;;;;;;;;8.25;5.00;;;;;19.58;47.99;101739.22;5039290;28;45194;-71
2022/05/12 08:34:00;;;;;;;;;8.00;4.50;;;;;19.68;48.34;101732.56;5038715;28;45219;-70
2022/05/12 08:36:27;;;;;;;;;4.00;4.00;;;;;19.83;47.93;101732.75;5037184;28;45474;-71
2022/05/12 08:38:53;;;;;;;;;3.25;2.00;;;;;19.91;46.04;101738.47;5038864;28;45454;-70
2022/05/12 08:41:40;;;;;;;;;6.00;5.00;;;;;19.89;46.67;101737.69;5039400;28;45281;-71
2022/05/12 08:44:11;;;;;;;;;9.50;4.75;;;;;19.91;46.58;101741.09;5037370;28;45405;-71
2022/05/12 08:46:56;;;;;;;;;3.00;3.00;;;;;19.93;45.92;101739.25;5039312;28;45414;-71
2022/05/12 08:49:35;;;;;;;;;7.00;5.75;;;;;19.96;46.20;101741.72;5027582;28;46301;-70
2022/05/12 08:52:13;;;;;;;;;8.00;4.75;;;;;20.18;46.08;101749.41;5039140;28;45310;-71
2022/05/12 08:54:42;;;;;;;;;6.00;5.00;;;;;20.18;44.52;101738.84;5038302;28;45350;-71
2022/05/12 08:57:28;;;;;;;;;5.00;3.50;;;;;20.08;45.14;101727.91;5037080;28;46736;-71
2022/05/12 08:59:55;;;;;;;;;6.00;3.50;;;;;20.26;45.47;101740.16;5042748;28;45443;-71
2022/05/12 09:02:43;;;;;;;;;8.25;3.50;;;;;20.41;44.26;101733.25;5042604;28;45376;-71
2022/05/12 09:05:19;;;;;;;;;5.25;2.00;;;;;20.53;44.13;101731.75;5042361;28;45286;-71
2022/05/12 09:07:55;;;;;;;;;2.75;2.75;;;;;20.58;42.90;101735.84;5042511;28;45344;-71
2022/05/12 09:10:42;;;;;;;;;3.25;2.00;;;;;20.54;42.49;101734.31;5049192;28;46274;-70
2022/05/12 09:13:22;;;;;;;;;5.00;3.75;;;;;20.57;43.62;101728.84;5040799;28;45916;-71
2022/05/12 09:16:11;;;;;;;;;4.50;3.00;;;;;20.78;42.94;101724.19;5042697;28;45451;-71
2022/05/12 09:18:37;;;;;;;;;3.25;1.75;;;;;20.94;43.23;101727.72;5030455;28;45261;-71
2022/05/12 09:21:17;;;;;;;;;2.25;2.00;;;;;20.95;41.49;101729.41;5042023;28;45618;-71
2022/05/12 09:23:43;;;;;;;;;4.00;2.75;;;;;20.94;42.05;101737.44;5042195;28;45412;-71
2022/05/12 09:26:34;;;;;;;;;3.75;3.75;;;;;21.01;41.21;101735.28;5041021;28;45324;-71
2022/05/12 09:29:24;;;;;;;;;4.00;3.00;;;;;21.05;41.46;101737.72;5041908;28;45379;-71
2022/05/12 09:32:04;;;;;;;;;3.50;1.50;;;;;20.97;41.80;101734.63;5041889;28;45494;-71
2022/05/12 09:34:31;;;;;;;;;3.00;1.50;;;;;21.05;41.77;101742.13;5041282;28;45312;-71
2022/05/12 09:37:17;;;;;;;;;3.00;3.00;;;;;21.20;41.92;101722.75;5041777;28;45368;-71
2022/05/12 09:39:54;;;;;;;;;3.50;3.00;;;;;21.35;41.46;101731.66;5042090;28;45676;-71
2022/05/12 09:42:29;;;;;;;;;5.50;3.75;;;;;21.37;41.01;101735.06;5040036;28;47279;-71
2022/05/12 09:44:56;;;;;;;;;3.00;3.00;;;;;21.45;41.22;101723.13;5041856;28;45596;-71
2022/05/12 09:47:22;;;;;;;;;5.25;1.75;;;;;21.64;41.35;101728.22;5040170;28;45237;-71
2022/05/12 09:49:48;;;;;;;;;3.00;3.00;;;;;21.69;40.02;101717.34;5041720;28;45608;-70
2022/05/12 09:52:36;;;;;;;;;3.50;2.25;;;;;21.58;39.60;101732.97;5039744;28;48187;-70
2022/05/12 09:55:16;;;;;;;;;2.00;2.00;;;;;21.60;40.87;101717.88;5041748;28;45292;-70
2022/05/12 09:58:05;;;;;;;;;2.50;2.00;;;;;21.75;40.01;101714.34;5041733;28;45347;-70
2022/05/12 10:00:30;;;;;;;;;3.50;3.25;;;;;21.88;41.12;101719.78;5039927;28;45565;-70
2022/05/12 10:09:09;;;;;;;;;1.00;1.00;;;;;22.54;39.60;101721.94;5036548;28;45340;-71
2022/05/12 10:12:02;;;;;;;;;3.50;2.50;;;;;22.55;39.52;101715.69;5040558;28;45493;-71
2022/05/12 10:14:54;;;;;;;;;3.00;3.00;;;;;22.46;39.22;101717.13;5040581;28;45560;-71
2022/05/12 10:17:33;;;;;;;;;4.25;3.75;;;;;22.45;39.04;101702.19;5040865;28;45482;-71
2022/05/12 10:20:09;;;;;;;;;2.00;2.00;;;;;22.60;39.63;101703.00;5040369;28;45332;-71
2022/05/12 10:22:56;;;;;;;;;2.00;1.75;;;;;22.78;39.06;101700.06;5038471;28;46907;-71
2022/05/12 10:25:39;;;;;;;;;4.00;4.00;;;;;22.95;38.94;101692.88;5040177;28;45544;-71
2022/05/12 10:28:23;;;;;;;;;3.50;3.00;;;;;23.03;38.00;101694.09;5039905;28;45160;-71
2022/05/12 10:31:08;;;;;;;;;3.00;2.25;;;;;22.94;38.70;101685.88;5040243;28;45760;-71
2022/05/12 10:34:06;;;;;;;;;5.00;3.00;;;;;22.97;38.30;101688.31;5041039;28;45523;-71
2022/05/12 10:37:09;;;;;;;;;5.50;3.50;;;;;22.80;37.78;101693.81;5033674;28;46334;-71
2022/05/12 10:39:48;;;;;;;;;3.25;2.75;;;;;22.67;37.63;101699.06;4998814;28;45366;-71
2022/05/12 10:42:23;;;;;;;;;1.75;1.75;;;;;22.51;38.08;101703.59;5034811;28;45207;-71
2022/05/12 10:45:31;;;;;;;;;6.00;2.25;;;;;22.46;38.22;101699.44;5040561;28;45229;-70
2022/05/12 10:48:19;;;;;;;;;2.50;2.00;;;;;22.81;37.92;101696.34;5011456;28;45533;-70
2022/05/12 10:51:06;;;;;;;;;2.50;2.25;;;;;23.05;37.57;101686.03;5039339;28;45139;-70
2022/05/12 10:53:57;;;;;;;;;2.25;2.25;;;;;23.34;37.56;101687.63;5040320;28;45289;-70
2022/05/12 10:56:41;;;;;;;;;2.00;2.00;;;;;23.36;36.54;101688.38;5040254;28;45221;-71
2022/05/12 10:59:43;;;;;;;;;2.75;2.75;;;;;23.23;36.16;101689.28;5029212;28;46343;-71
2022/05/12 11:02:17;;;;;;;;;6.50;5.00;;;;;23.18;37.03;101691.38;5040266;28;45157;-71
2022/05/12 11:05:00;;;;;;;;;7.00;4.50;;;;;23.34;37.32;101686.78;5040026;28;45158;-71
2022/05/12 11:07:37;;;;;;;;;4.00;2.50;;;;;23.55;36.38;101680.03;5040231;28;45382;-71
2022/05/12 11:10:32;;;;;;;;;2.75;2.75;;;;;23.55;36.69;101680.03;5046159;28;45402;-71
2022/05/12 11:13:28;;;;;;;;;3.00;2.00;;;;;23.68;36.64;101685.41;5037801;28;45558;-71
2022/05/12 11:16:05;;;;;;;;;6.50;4.50;;;;;23.66;36.32;101685.53;5033613;28;45337;-71
2022/05/12 11:18:52;;;;;;;;;3.25;2.00;;;;;23.65;36.75;101682.97;5040184;28;45351;-71
2022/05/12 11:21:28;;;;;;;;;5.25;2.75;;;;;23.64;37.04;101675.97;5038756;28;45437;-71
2022/05/12 11:24:19;;;;;;;;;4.00;3.00;;;;;23.77;36.11;101682.13;5039751;28;45635;-71
2022/05/12 11:27:15;;;;;;;;;3.75;2.50;;;;;23.79;36.44;101690.81;5040027;28;45299;-71
2022/05/12 11:30:02;;;;;;;;;6.25;3.50;;;;;23.67;36.57;101673.09;5039944;28;45462;-70
2022/05/12 11:32:54;;;;;;;;;6.00;4.00;;;;;23.66;35.87;101689.97;5038265;28;47167;-71
2022/05/12 11:35:28;;;;;;;;;6.50;3.00;;;;;23.62;36.15;101685.81;5039778;28;45711;-71
2022/05/12 11:38:00;;;;;;;;;2.75;2.75;;;;;23.67;36.04;101686.38;5040013;28;45439;-70
2022/05/12 11:40:43;;;;;;;;;5.00;3.25;;;;;23.70;36.17;101683.50;5039526;28;45338;-70
2022/05/12 11:46:19;;;;;;;;;3.00;3.00;;;;;23.64;36.73;101681.28;5044223;28;45616;-71
2022/05/12 11:48:58;;;;;;;;;3.50;3.00;;;;;23.75;36.63;101693.81;5040042;28;45331;-70
2022/05/12 11:51:23;;;;;;;;;2.75;2.00;;;;;23.80;36.58;101686.38;5039849;28;45563;-70
2022/05/12 11:54:03;;;;;;;;;3.25;3.00;;;;;23.80;36.27;101684.56;5039389;28;45292;-70
2022/05/12 11:56:59;;;;;;;;;6.00;4.50;;;;;23.80;36.82;101679.25;5039578;28;45542;-70
2022/05/12 11:59:28;;;;;;;;;4.75;3.25;;;;;23.91;36.32;101681.19;5031026;28;46175;-71
2022/05/12 12:02:24;;;;;;;;;5.00;3.00;;;;;24.09;35.89;101689.69;5039618;28;45438;-71